AFR54ZQ EIDW-LFPG
Flight info
| Callsign | AFR54ZQ |
|---|---|
| Flight time | 1h 13m |
| Altitude | 35000 |
| Route | ENDEQ1E ENDEQ Q36 EPOXI L15 KEPAD L151 MID Y803 SFD/N0402F250 UM605 BIBAX |
| Aircraft | A321/M-SDE3FGHIRWY/LB1 |
Departure
| Time | 2026-05-08 18:54 |
|---|---|
| Airport | Dublin Airport (EIDW) |
Arrival
| Time | 2026-05-08 20:07 |
|---|---|
| Airport | Charles de Gaulle International Airport (LFPG) |
| Time | Latitude | Longitude | Altitude | Speed | Heading |
|---|---|---|---|---|---|
| 2026-05-08 18:27 | 53.42769 | -6.24740 | 216 ft | 0 kts | 2° |
| 2026-05-08 18:40 | 53.42762 | -6.24741 | 215 ft | 4 kts | 2° |
| 2026-05-08 18:40 | 53.42735 | -6.24743 | 211 ft | 4 kts | 8° |
| 2026-05-08 18:40 | 53.42711 | -6.24755 | 218 ft | 4 kts | 42° |
| 2026-05-08 18:40 | 53.42699 | -6.24783 | 215 ft | 3 kts | 60° |
| 2026-05-08 18:41 | 53.42685 | -6.24822 | 214 ft | 3 kts | 55° |
| 2026-05-08 18:41 | 53.42670 | -6.24859 | 212 ft | 2 kts | 62° |
| 2026-05-08 18:41 | 53.42662 | -6.24897 | 214 ft | 3 kts | 97° |
| 2026-05-08 18:41 | 53.42673 | -6.24933 | 211 ft | 3 kts | 143° |
| 2026-05-08 18:42 | 53.42693 | -6.24953 | 211 ft | 1 kts | 152° |
| 2026-05-08 18:42 | 53.42693 | -6.24954 | 211 ft | 0 kts | 152° |
| 2026-05-08 18:44 | 53.42693 | -6.24953 | 211 ft | 2 kts | 152° |
| 2026-05-08 18:44 | 53.42646 | -6.24903 | 214 ft | 13 kts | 147° |
| 2026-05-08 18:44 | 53.42566 | -6.24890 | 219 ft | 11 kts | 220° |
| 2026-05-08 18:44 | 53.42558 | -6.24999 | 217 ft | 8 kts | 308° |
| 2026-05-08 18:45 | 53.42610 | -6.25040 | 212 ft | 8 kts | 337° |
| 2026-05-08 18:45 | 53.42656 | -6.25073 | 213 ft | 7 kts | 336° |
| 2026-05-08 18:45 | 53.42668 | -6.25082 | 211 ft | 0 kts | 336° |
| 2026-05-08 18:46 | 53.42673 | -6.25085 | 215 ft | 4 kts | 336° |
| 2026-05-08 18:46 | 53.42733 | -6.25122 | 214 ft | 13 kts | 350° |
| 2026-05-08 18:46 | 53.42801 | -6.25184 | 211 ft | 11 kts | 284° |
| 2026-05-08 18:46 | 53.42774 | -6.25288 | 212 ft | 9 kts | 224° |
| 2026-05-08 18:47 | 53.42732 | -6.25359 | 215 ft | 8 kts | 225° |
| 2026-05-08 18:47 | 53.42683 | -6.25443 | 213 ft | 13 kts | 225° |
| 2026-05-08 18:47 | 53.42608 | -6.25572 | 213 ft | 14 kts | 225° |
| 2026-05-08 18:47 | 53.42598 | -6.25590 | 217 ft | 6 kts | 225° |
| 2026-05-08 18:48 | 53.42538 | -6.25690 | 211 ft | 15 kts | 225° |
| 2026-05-08 18:48 | 53.42467 | -6.25810 | 213 ft | 14 kts | 225° |
| 2026-05-08 18:48 | 53.42403 | -6.25918 | 215 ft | 12 kts | 225° |
| 2026-05-08 18:48 | 53.42346 | -6.26015 | 211 ft | 12 kts | 226° |
| 2026-05-08 18:49 | 53.42283 | -6.26149 | 213 ft | 15 kts | 243° |
| 2026-05-08 18:49 | 53.42266 | -6.26311 | 215 ft | 14 kts | 274° |
| 2026-05-08 18:49 | 53.42276 | -6.26460 | 218 ft | 13 kts | 275° |
| 2026-05-08 18:49 | 53.42284 | -6.26617 | 211 ft | 13 kts | 275° |
| 2026-05-08 18:50 | 53.42292 | -6.26766 | 211 ft | 16 kts | 275° |
| 2026-05-08 18:50 | 53.42303 | -6.26982 | 211 ft | 20 kts | 276° |
| 2026-05-08 18:50 | 53.42316 | -6.27208 | 211 ft | 18 kts | 275° |
| 2026-05-08 18:50 | 53.42327 | -6.27409 | 211 ft | 17 kts | 275° |
| 2026-05-08 18:51 | 53.42337 | -6.27594 | 216 ft | 15 kts | 275° |
| 2026-05-08 18:51 | 53.42346 | -6.27759 | 211 ft | 14 kts | 275° |
| 2026-05-08 18:51 | 53.42354 | -6.27908 | 216 ft | 13 kts | 275° |
| 2026-05-08 18:51 | 53.42364 | -6.28067 | 215 ft | 15 kts | 275° |
| 2026-05-08 18:52 | 53.42369 | -6.28252 | 211 ft | 16 kts | 255° |
| 2026-05-08 18:52 | 53.42282 | -6.28301 | 219 ft | 16 kts | 153° |
| 2026-05-08 18:52 | 53.42211 | -6.28153 | 220 ft | 18 kts | 110° |
| 2026-05-08 18:52 | 53.42186 | -6.27972 | 212 ft | 3 kts | 94° |
| 2026-05-08 18:53 | 53.42185 | -6.27951 | 212 ft | 17 kts | 95° |
| 2026-05-08 18:53 | 53.42151 | -6.27312 | 210 ft | 89 kts | 95° |
| 2026-05-08 18:53 | 53.42075 | -6.25951 | 216 ft | 143 kts | 95° |
| 2026-05-08 18:53 | 53.41980 | -6.24118 | 477 ft | 164 kts | 92° |
| 2026-05-08 18:54 | 53.41859 | -6.22202 | 1123 ft | 166 kts | 94° |
| 2026-05-08 18:54 | 53.41720 | -6.20283 | 1791 ft | 166 kts | 93° |
| 2026-05-08 18:54 | 53.41592 | -6.18280 | 2089 ft | 180 kts | 91° |
| 2026-05-08 18:54 | 53.41472 | -6.16114 | 2378 ft | 193 kts | 92° |
| 2026-05-08 18:55 | 53.41220 | -6.11200 | 2703 ft | 237 kts | 92° |
| 2026-05-08 18:55 | 53.41082 | -6.08343 | 3219 ft | 250 kts | 93° |
| 2026-05-08 18:55 | 53.40931 | -6.05428 | 3993 ft | 253 kts | 93° |
| 2026-05-08 18:56 | 53.40935 | -6.02454 | 4749 ft | 258 kts | 86° |
| 2026-05-08 18:56 | 53.41110 | -5.99442 | 5471 ft | 262 kts | 84° |
| 2026-05-08 18:56 | 53.41352 | -5.96388 | 6219 ft | 266 kts | 83° |
| 2026-05-08 18:56 | 53.41606 | -5.93309 | 6942 ft | 269 kts | 84° |
| 2026-05-08 18:57 | 53.41849 | -5.90181 | 7637 ft | 272 kts | 83° |
| 2026-05-08 18:57 | 53.42004 | -5.88087 | 8074 ft | 275 kts | 86° |
| 2026-05-08 18:57 | 53.42304 | -5.83792 | 8952 ft | 280 kts | 86° |
| 2026-05-08 18:57 | 53.42521 | -5.80577 | 9586 ft | 282 kts | 86° |
| 2026-05-08 18:58 | 53.42743 | -5.77290 | 10246 ft | 286 kts | 86° |
| 2026-05-08 18:58 | 53.42975 | -5.73867 | 10477 ft | 306 kts | 86° |
| 2026-05-08 18:58 | 53.43221 | -5.70208 | 10611 ft | 326 kts | 86° |
| 2026-05-08 18:58 | 53.43480 | -5.66372 | 10989 ft | 335 kts | 85° |
| 2026-05-08 18:59 | 53.43742 | -5.62455 | 11526 ft | 340 kts | 86° |
| 2026-05-08 18:59 | 53.44002 | -5.58484 | 12090 ft | 345 kts | 86° |
| 2026-05-08 18:59 | 53.44262 | -5.54515 | 12661 ft | 349 kts | 85° |
| 2026-05-08 18:59 | 53.44512 | -5.50445 | 13211 ft | 353 kts | 89° |
| 2026-05-08 19:00 | 53.44486 | -5.46300 | 13664 ft | 359 kts | 93° |
| 2026-05-08 19:00 | 53.44387 | -5.42096 | 14163 ft | 364 kts | 94° |
| 2026-05-08 19:00 | 53.44283 | -5.37834 | 14652 ft | 368 kts | 95° |
| 2026-05-08 19:00 | 53.44173 | -5.33530 | 15171 ft | 371 kts | 95° |
| 2026-05-08 19:01 | 53.44059 | -5.29195 | 15689 ft | 373 kts | 95° |
| 2026-05-08 19:01 | 53.43944 | -5.24826 | 16192 ft | 377 kts | 95° |
| 2026-05-08 19:01 | 53.43827 | -5.20421 | 16689 ft | 380 kts | 95° |
| 2026-05-08 19:01 | 53.43711 | -5.16040 | 17167 ft | 383 kts | 95° |
| 2026-05-08 19:02 | 53.43585 | -5.11564 | 17633 ft | 386 kts | 95° |
| 2026-05-08 19:02 | 53.43447 | -5.07051 | 18108 ft | 389 kts | 96° |
| 2026-05-08 19:02 | 53.43300 | -5.02503 | 18554 ft | 392 kts | 96° |
| 2026-05-08 19:02 | 53.43148 | -4.97921 | 18956 ft | 395 kts | 96° |
| 2026-05-08 19:03 | 53.42993 | -4.93302 | 19328 ft | 398 kts | 96° |
| 2026-05-08 19:03 | 53.42839 | -4.88650 | 19694 ft | 401 kts | 96° |
| 2026-05-08 19:03 | 53.42684 | -4.83967 | 20052 ft | 404 kts | 96° |
| 2026-05-08 19:03 | 53.42530 | -4.79245 | 20400 ft | 407 kts | 96° |
| 2026-05-08 19:04 | 53.42376 | -4.74556 | 20737 ft | 410 kts | 96° |
| 2026-05-08 19:04 | 53.42216 | -4.69770 | 21076 ft | 412 kts | 96° |
| 2026-05-08 19:04 | 53.42051 | -4.64953 | 21410 ft | 415 kts | 96° |
| 2026-05-08 19:04 | 53.41884 | -4.60101 | 21720 ft | 418 kts | 96° |
| 2026-05-08 19:05 | 53.41715 | -4.55225 | 22043 ft | 421 kts | 96° |
| 2026-05-08 19:05 | 53.41540 | -4.50307 | 22369 ft | 424 kts | 96° |
| 2026-05-08 19:05 | 53.41362 | -4.45354 | 22697 ft | 427 kts | 96° |
| 2026-05-08 19:05 | 53.41181 | -4.40369 | 23030 ft | 430 kts | 96° |
| 2026-05-08 19:06 | 53.40996 | -4.35350 | 23366 ft | 433 kts | 96° |
| 2026-05-08 19:06 | 53.40810 | -4.30370 | 23679 ft | 436 kts | 96° |
| 2026-05-08 19:06 | 53.40621 | -4.25294 | 23956 ft | 438 kts | 96° |
| 2026-05-08 19:06 | 53.40429 | -4.20182 | 24236 ft | 441 kts | 96° |
| 2026-05-08 19:07 | 53.40232 | -4.15043 | 24511 ft | 443 kts | 97° |
| 2026-05-08 19:07 | 53.40030 | -4.09876 | 24787 ft | 445 kts | 96° |
| 2026-05-08 19:07 | 53.39822 | -4.04688 | 25087 ft | 447 kts | 97° |
| 2026-05-08 19:07 | 53.39611 | -3.99477 | 25371 ft | 449 kts | 97° |
| 2026-05-08 19:08 | 53.39398 | -3.94239 | 25653 ft | 452 kts | 97° |
| 2026-05-08 19:08 | 53.39185 | -3.88974 | 25912 ft | 454 kts | 97° |
| 2026-05-08 19:08 | 53.38973 | -3.83754 | 26176 ft | 456 kts | 97° |
| 2026-05-08 19:08 | 53.38752 | -3.78438 | 26436 ft | 459 kts | 97° |
| 2026-05-08 19:09 | 53.38526 | -3.73106 | 26698 ft | 461 kts | 97° |
| 2026-05-08 19:09 | 53.38233 | -3.67741 | 26945 ft | 461 kts | 102° |
| 2026-05-08 19:09 | 53.37529 | -3.62519 | 27195 ft | 459 kts | 111° |
| 2026-05-08 19:09 | 53.36396 | -3.57557 | 27426 ft | 457 kts | 117° |
| 2026-05-08 19:10 | 53.35130 | -3.52652 | 27660 ft | 460 kts | 117° |
| 2026-05-08 19:10 | 53.33784 | -3.47791 | 27896 ft | 459 kts | 123° |
| 2026-05-08 19:10 | 53.32072 | -3.43309 | 28141 ft | 456 kts | 132° |
| 2026-05-08 19:10 | 53.30063 | -3.39323 | 28383 ft | 455 kts | 136° |
| 2026-05-08 19:11 | 53.27965 | -3.35360 | 28633 ft | 457 kts | 136° |
| 2026-05-08 19:11 | 53.25854 | -3.31377 | 28878 ft | 458 kts | 136° |
| 2026-05-08 19:11 | 53.23735 | -3.27383 | 29123 ft | 460 kts | 136° |
| 2026-05-08 19:11 | 53.21607 | -3.23372 | 29375 ft | 462 kts | 136° |
| 2026-05-08 19:12 | 53.19475 | -3.19350 | 29573 ft | 464 kts | 136° |
| 2026-05-08 19:12 | 53.17334 | -3.15313 | 29790 ft | 465 kts | 136° |
| 2026-05-08 19:12 | 53.15184 | -3.11268 | 29995 ft | 467 kts | 136° |
| 2026-05-08 19:12 | 53.13025 | -3.07213 | 30168 ft | 469 kts | 136° |
| 2026-05-08 19:13 | 53.10856 | -3.03154 | 30287 ft | 470 kts | 136° |
| 2026-05-08 19:13 | 53.08706 | -2.99136 | 30441 ft | 472 kts | 136° |
| 2026-05-08 19:13 | 53.06523 | -2.95058 | 30647 ft | 472 kts | 136° |
| 2026-05-08 19:13 | 53.04338 | -2.90987 | 30858 ft | 472 kts | 136° |
| 2026-05-08 19:14 | 53.02152 | -2.86920 | 31063 ft | 472 kts | 136° |
| 2026-05-08 19:14 | 52.99965 | -2.82856 | 31275 ft | 472 kts | 136° |
| 2026-05-08 19:14 | 52.97774 | -2.78794 | 31475 ft | 472 kts | 136° |
| 2026-05-08 19:14 | 52.95585 | -2.74742 | 31694 ft | 471 kts | 136° |
| 2026-05-08 19:15 | 52.93406 | -2.70708 | 31935 ft | 470 kts | 136° |
| 2026-05-08 19:15 | 52.91222 | -2.66675 | 32153 ft | 470 kts | 136° |
| 2026-05-08 19:15 | 52.89064 | -2.62700 | 32346 ft | 470 kts | 136° |
| 2026-05-08 19:15 | 52.86874 | -2.58676 | 32581 ft | 470 kts | 136° |
| 2026-05-08 19:16 | 52.84682 | -2.54658 | 32789 ft | 470 kts | 136° |
| 2026-05-08 19:16 | 52.82483 | -2.50650 | 32991 ft | 470 kts | 138° |
| 2026-05-08 19:16 | 52.80086 | -2.47015 | 33151 ft | 466 kts | 147° |
| 2026-05-08 19:16 | 52.77447 | -2.43954 | 33334 ft | 463 kts | 151° |
| 2026-05-08 19:17 | 52.74764 | -2.41010 | 33534 ft | 463 kts | 151° |
| 2026-05-08 19:17 | 52.72116 | -2.38099 | 33723 ft | 463 kts | 151° |
| 2026-05-08 19:17 | 52.69438 | -2.35157 | 33950 ft | 463 kts | 151° |
| 2026-05-08 19:17 | 52.66753 | -2.32214 | 34137 ft | 464 kts | 151° |
| 2026-05-08 19:18 | 52.64069 | -2.29271 | 34323 ft | 463 kts | 151° |
| 2026-05-08 19:18 | 52.61389 | -2.26328 | 34512 ft | 463 kts | 151° |
| 2026-05-08 19:18 | 52.58711 | -2.23393 | 34707 ft | 462 kts | 151° |
| 2026-05-08 19:18 | 52.56036 | -2.20467 | 34900 ft | 461 kts | 151° |
| 2026-05-08 19:19 | 52.53363 | -2.17546 | 35054 ft | 461 kts | 151° |
| 2026-05-08 19:19 | 52.48054 | -2.11758 | 35091 ft | 456 kts | 150° |
| 2026-05-08 19:20 | 52.42811 | -2.06059 | 35091 ft | 455 kts | 150° |
| 2026-05-08 19:20 | 52.37538 | -2.00359 | 35092 ft | 454 kts | 151° |
| 2026-05-08 19:21 | 52.32251 | -1.94664 | 35095 ft | 456 kts | 151° |
| 2026-05-08 19:21 | 52.26941 | -1.88953 | 35097 ft | 457 kts | 151° |
| 2026-05-08 19:22 | 52.21661 | -1.83283 | 35098 ft | 457 kts | 150° |
| 2026-05-08 19:22 | 52.16343 | -1.77598 | 35105 ft | 458 kts | 150° |
| 2026-05-08 19:23 | 52.11016 | -1.71920 | 35109 ft | 458 kts | 150° |
| 2026-05-08 19:23 | 52.05688 | -1.66251 | 35112 ft | 458 kts | 150° |
| 2026-05-08 19:24 | 52.00365 | -1.60584 | 35099 ft | 457 kts | 150° |
| 2026-05-08 19:24 | 51.95073 | -1.54979 | 35103 ft | 457 kts | 150° |
| 2026-05-08 19:25 | 51.89741 | -1.49372 | 35098 ft | 457 kts | 150° |
| 2026-05-08 19:25 | 51.84409 | -1.43778 | 35086 ft | 457 kts | 150° |
| 2026-05-08 19:26 | 51.79071 | -1.38169 | 35069 ft | 458 kts | 150° |
| 2026-05-08 19:26 | 51.73766 | -1.32611 | 35082 ft | 458 kts | 150° |
| 2026-05-08 19:27 | 51.68419 | -1.27020 | 35090 ft | 458 kts | 150° |
| 2026-05-08 19:27 | 51.63068 | -1.21477 | 35091 ft | 457 kts | 150° |
| 2026-05-08 19:28 | 51.57715 | -1.15938 | 35097 ft | 457 kts | 150° |
| 2026-05-08 19:28 | 51.52407 | -1.10433 | 35093 ft | 457 kts | 150° |
| 2026-05-08 19:29 | 51.47057 | -1.04910 | 35098 ft | 457 kts | 150° |
| 2026-05-08 19:29 | 51.41710 | -0.99419 | 35101 ft | 457 kts | 150° |
| 2026-05-08 19:30 | 51.36359 | -0.93940 | 35090 ft | 457 kts | 150° |
| 2026-05-08 19:30 | 51.31047 | -0.88517 | 35098 ft | 457 kts | 150° |
| 2026-05-08 19:31 | 51.25678 | -0.83042 | 35102 ft | 457 kts | 150° |
| 2026-05-08 19:31 | 51.20311 | -0.77579 | 35114 ft | 457 kts | 150° |
| 2026-05-08 19:32 | 51.14936 | -0.72137 | 35116 ft | 457 kts | 150° |
| 2026-05-08 19:32 | 51.09566 | -0.66720 | 35117 ft | 457 kts | 150° |
| 2026-05-08 19:33 | 51.04782 | -0.60157 | 35105 ft | 462 kts | 131° |
| 2026-05-08 19:33 | 51.01204 | -0.51657 | 35093 ft | 464 kts | 123° |
| 2026-05-08 19:34 | 50.97809 | -0.42924 | 35094 ft | 464 kts | 123° |
| 2026-05-08 19:34 | 50.94402 | -0.34220 | 35089 ft | 465 kts | 123° |
| 2026-05-08 19:35 | 50.91010 | -0.25581 | 35088 ft | 465 kts | 123° |
| 2026-05-08 19:35 | 50.87589 | -0.16891 | 35079 ft | 465 kts | 123° |
| 2026-05-08 19:36 | 50.84172 | -0.08224 | 35092 ft | 464 kts | 123° |
| 2026-05-08 19:36 | 50.80763 | 0.00378 | 35097 ft | 464 kts | 123° |
| 2026-05-08 19:37 | 50.77301 | 0.08976 | 35096 ft | 464 kts | 127° |
| 2026-05-08 19:37 | 50.72886 | 0.16285 | 35099 ft | 459 kts | 143° |
| 2026-05-08 19:38 | 50.67908 | 0.22620 | 35101 ft | 460 kts | 143° |
| 2026-05-08 19:38 | 50.62939 | 0.28981 | 35102 ft | 460 kts | 143° |
| 2026-05-08 19:39 | 50.58009 | 0.35290 | 35106 ft | 459 kts | 143° |
| 2026-05-08 19:39 | 50.53034 | 0.41618 | 34774 ft | 465 kts | 143° |
| 2026-05-08 19:39 | 50.50486 | 0.44839 | 33631 ft | 475 kts | 143° |
| 2026-05-08 19:40 | 50.47918 | 0.48077 | 32968 ft | 471 kts | 142° |
| 2026-05-08 19:40 | 50.45385 | 0.51276 | 32441 ft | 465 kts | 142° |
| 2026-05-08 19:40 | 50.42880 | 0.54447 | 31890 ft | 460 kts | 143° |
| 2026-05-08 19:40 | 50.40398 | 0.57587 | 31339 ft | 456 kts | 143° |
| 2026-05-08 19:41 | 50.37934 | 0.60688 | 30808 ft | 452 kts | 143° |
| 2026-05-08 19:41 | 50.35522 | 0.63714 | 30296 ft | 448 kts | 143° |
| 2026-05-08 19:41 | 50.33098 | 0.66754 | 29713 ft | 444 kts | 143° |
| 2026-05-08 19:41 | 50.30700 | 0.69752 | 29195 ft | 438 kts | 144° |
| 2026-05-08 19:42 | 50.28109 | 0.72106 | 28694 ft | 427 kts | 162° |
| 2026-05-08 19:42 | 50.25261 | 0.73093 | 28211 ft | 416 kts | 179° |
| 2026-05-08 19:42 | 50.22390 | 0.73260 | 27732 ft | 412 kts | 181° |
| 2026-05-08 19:42 | 50.19533 | 0.73472 | 27262 ft | 411 kts | 173° |
| 2026-05-08 19:43 | 50.16803 | 0.74728 | 26797 ft | 410 kts | 155° |
| 2026-05-08 19:43 | 50.14328 | 0.76946 | 26340 ft | 409 kts | 149° |
| 2026-05-08 19:43 | 50.11923 | 0.79264 | 25885 ft | 406 kts | 149° |
| 2026-05-08 19:43 | 50.09534 | 0.81593 | 25450 ft | 403 kts | 149° |
| 2026-05-08 19:44 | 50.07171 | 0.83899 | 25022 ft | 400 kts | 149° |
| 2026-05-08 19:44 | 50.04851 | 0.86158 | 24596 ft | 397 kts | 149° |
| 2026-05-08 19:44 | 50.02509 | 0.88428 | 24206 ft | 394 kts | 149° |
| 2026-05-08 19:44 | 50.00186 | 0.90661 | 24071 ft | 392 kts | 149° |
| 2026-05-08 19:45 | 49.97857 | 0.92898 | 24088 ft | 395 kts | 148° |
| 2026-05-08 19:45 | 49.95515 | 0.95142 | 24085 ft | 395 kts | 148° |
| 2026-05-08 19:45 | 49.93176 | 0.97387 | 24090 ft | 395 kts | 148° |
| 2026-05-08 19:45 | 49.90836 | 0.99633 | 24083 ft | 396 kts | 148° |
| 2026-05-08 19:46 | 49.88481 | 1.01888 | 23297 ft | 402 kts | 148° |
| 2026-05-08 19:46 | 49.86083 | 1.04176 | 22370 ft | 405 kts | 149° |
| 2026-05-08 19:46 | 49.81352 | 1.08687 | 21100 ft | 397 kts | 149° |
| 2026-05-08 19:47 | 49.79016 | 1.10920 | 20511 ft | 392 kts | 149° |
| 2026-05-08 19:47 | 49.76727 | 1.13107 | 20021 ft | 380 kts | 149° |
| 2026-05-08 19:47 | 49.74525 | 1.15203 | 19569 ft | 365 kts | 149° |
| 2026-05-08 19:47 | 49.72399 | 1.17220 | 19142 ft | 352 kts | 149° |
| 2026-05-08 19:48 | 49.70344 | 1.19167 | 18718 ft | 341 kts | 149° |
| 2026-05-08 19:48 | 49.68355 | 1.21049 | 18297 ft | 330 kts | 149° |
| 2026-05-08 19:48 | 49.66431 | 1.22867 | 17877 ft | 320 kts | 149° |
| 2026-05-08 19:48 | 49.64526 | 1.24670 | 17475 ft | 322 kts | 149° |
| 2026-05-08 19:49 | 49.62642 | 1.26451 | 17098 ft | 321 kts | 149° |
| 2026-05-08 19:49 | 49.60742 | 1.28249 | 16720 ft | 319 kts | 149° |
| 2026-05-08 19:49 | 49.58851 | 1.30031 | 16345 ft | 318 kts | 149° |
| 2026-05-08 19:49 | 49.56971 | 1.31801 | 15973 ft | 316 kts | 149° |
| 2026-05-08 19:50 | 49.55096 | 1.33561 | 15590 ft | 315 kts | 149° |
| 2026-05-08 19:50 | 49.53188 | 1.35353 | 15215 ft | 322 kts | 149° |
| 2026-05-08 19:50 | 49.51305 | 1.37126 | 14988 ft | 313 kts | 149° |
| 2026-05-08 19:50 | 49.49436 | 1.38886 | 14485 ft | 315 kts | 149° |
| 2026-05-08 19:51 | 49.47571 | 1.40637 | 14078 ft | 313 kts | 150° |
| 2026-05-08 19:51 | 49.45717 | 1.42372 | 13668 ft | 311 kts | 150° |
| 2026-05-08 19:51 | 49.43905 | 1.44068 | 13283 ft | 308 kts | 150° |
| 2026-05-08 19:51 | 49.42084 | 1.45763 | 12888 ft | 305 kts | 150° |
| 2026-05-08 19:52 | 49.40275 | 1.47437 | 12472 ft | 302 kts | 149° |
| 2026-05-08 19:52 | 49.38477 | 1.49089 | 12057 ft | 300 kts | 150° |
| 2026-05-08 19:52 | 49.36690 | 1.50717 | 11643 ft | 298 kts | 150° |
| 2026-05-08 19:52 | 49.34907 | 1.52329 | 11235 ft | 297 kts | 150° |
| 2026-05-08 19:53 | 49.33730 | 1.53385 | 10964 ft | 295 kts | 150° |
| 2026-05-08 19:53 | 49.31960 | 1.54964 | 10579 ft | 293 kts | 150° |
| 2026-05-08 19:53 | 49.30198 | 1.56522 | 10178 ft | 291 kts | 150° |
| 2026-05-08 19:53 | 49.27899 | 1.58548 | 9850 ft | 281 kts | 150° |
| 2026-05-08 19:54 | 49.26245 | 1.60018 | 9709 ft | 269 kts | 150° |
| 2026-05-08 19:54 | 49.24651 | 1.61440 | 9422 ft | 263 kts | 150° |
| 2026-05-08 19:54 | 49.23085 | 1.62839 | 9136 ft | 257 kts | 150° |
| 2026-05-08 19:54 | 49.22066 | 1.63748 | 8927 ft | 254 kts | 150° |
| 2026-05-08 19:55 | 49.20550 | 1.65101 | 8595 ft | 251 kts | 150° |
| 2026-05-08 19:55 | 49.19044 | 1.66445 | 8242 ft | 249 kts | 150° |
| 2026-05-08 19:55 | 49.17554 | 1.67774 | 7898 ft | 247 kts | 150° |
| 2026-05-08 19:55 | 49.16072 | 1.69092 | 7563 ft | 245 kts | 150° |
| 2026-05-08 19:56 | 49.14121 | 1.70807 | 7143 ft | 242 kts | 151° |
| 2026-05-08 19:56 | 49.12650 | 1.72024 | 7055 ft | 241 kts | 152° |
| 2026-05-08 19:56 | 49.11649 | 1.72844 | 7060 ft | 242 kts | 152° |
| 2026-05-08 19:56 | 49.10186 | 1.74043 | 7070 ft | 242 kts | 152° |
| 2026-05-08 19:57 | 49.08700 | 1.75258 | 7073 ft | 242 kts | 152° |
| 2026-05-08 19:57 | 49.07214 | 1.76470 | 7003 ft | 242 kts | 153° |
| 2026-05-08 19:57 | 49.05742 | 1.77704 | 7073 ft | 241 kts | 152° |
| 2026-05-08 19:57 | 49.04277 | 1.78955 | 7079 ft | 241 kts | 152° |
| 2026-05-08 19:58 | 49.02817 | 1.80201 | 7073 ft | 241 kts | 152° |
| 2026-05-08 19:58 | 49.01354 | 1.81452 | 7073 ft | 241 kts | 152° |
| 2026-05-08 19:58 | 48.99898 | 1.82722 | 7079 ft | 241 kts | 148° |
| 2026-05-08 19:58 | 48.98772 | 1.84592 | 7002 ft | 243 kts | 118° |
| 2026-05-08 19:59 | 48.98266 | 1.87042 | 6718 ft | 244 kts | 104° |
| 2026-05-08 19:59 | 48.97929 | 1.89564 | 6471 ft | 242 kts | 102° |
| 2026-05-08 19:59 | 48.97611 | 1.92069 | 6238 ft | 241 kts | 102° |
| 2026-05-08 19:59 | 48.97297 | 1.94561 | 6000 ft | 239 kts | 102° |
| 2026-05-08 20:00 | 48.96986 | 1.97029 | 5766 ft | 236 kts | 102° |
| 2026-05-08 20:00 | 48.96676 | 1.99452 | 5540 ft | 235 kts | 102° |
| 2026-05-08 20:00 | 48.96536 | 2.01912 | 5311 ft | 234 kts | 88° |
| 2026-05-08 20:00 | 48.96620 | 2.04376 | 5083 ft | 232 kts | 88° |
| 2026-05-08 20:01 | 48.96700 | 2.06817 | 4984 ft | 231 kts | 88° |
| 2026-05-08 20:01 | 48.96779 | 2.09253 | 4983 ft | 231 kts | 88° |
| 2026-05-08 20:01 | 48.96858 | 2.11693 | 4985 ft | 231 kts | 88° |
| 2026-05-08 20:01 | 48.96939 | 2.14129 | 4986 ft | 231 kts | 88° |
| 2026-05-08 20:02 | 48.97052 | 2.16572 | 4985 ft | 231 kts | 85° |
| 2026-05-08 20:02 | 48.97198 | 2.18977 | 4987 ft | 231 kts | 85° |
| 2026-05-08 20:02 | 48.97342 | 2.21414 | 4834 ft | 232 kts | 85° |
| 2026-05-08 20:02 | 48.97481 | 2.23846 | 4547 ft | 229 kts | 85° |
| 2026-05-08 20:03 | 48.97617 | 2.26249 | 4237 ft | 225 kts | 85° |
| 2026-05-08 20:03 | 48.97750 | 2.28595 | 3939 ft | 219 kts | 85° |
| 2026-05-08 20:03 | 48.97878 | 2.30878 | 3650 ft | 214 kts | 85° |
| 2026-05-08 20:03 | 48.98003 | 2.33109 | 3371 ft | 208 kts | 85° |
| 2026-05-08 20:04 | 48.98122 | 2.35237 | 3111 ft | 196 kts | 85° |
| 2026-05-08 20:04 | 48.98233 | 2.37239 | 2844 ft | 185 kts | 85° |
| 2026-05-08 20:04 | 48.98339 | 2.39150 | 2597 ft | 178 kts | 84° |
| 2026-05-08 20:04 | 48.98443 | 2.41026 | 2365 ft | 177 kts | 84° |
| 2026-05-08 20:05 | 48.98541 | 2.42812 | 2135 ft | 166 kts | 85° |
| 2026-05-08 20:05 | 48.98633 | 2.44486 | 1928 ft | 155 kts | 84° |
| 2026-05-08 20:05 | 48.98721 | 2.46080 | 1717 ft | 145 kts | 84° |
| 2026-05-08 20:05 | 48.98803 | 2.47580 | 1525 ft | 140 kts | 84° |
| 2026-05-08 20:06 | 48.98875 | 2.49055 | 1345 ft | 139 kts | 85° |
| 2026-05-08 20:06 | 48.98956 | 2.50523 | 1174 ft | 139 kts | 82° |
| 2026-05-08 20:06 | 48.99049 | 2.52001 | 997 ft | 142 kts | 84° |
| 2026-05-08 20:06 | 48.99130 | 2.53498 | 792 ft | 142 kts | 84° |
| 2026-05-08 20:07 | 48.99204 | 2.54999 | 600 ft | 143 kts | 84° |
| 2026-05-08 20:07 | 48.99288 | 2.56501 | 418 ft | 143 kts | 83° |
| 2026-05-08 20:07 | 48.99368 | 2.57946 | 353 ft | 125 kts | 86° |
| 2026-05-08 20:07 | 48.99412 | 2.58808 | 356 ft | 47 kts | 85° |
| 2026-05-08 20:08 | 48.99460 | 2.59227 | 354 ft | 35 kts | 65° |
| 2026-05-08 20:08 | 48.99532 | 2.59465 | 356 ft | 19 kts | 66° |
| 2026-05-08 20:08 | 48.99586 | 2.59646 | 363 ft | 16 kts | 65° |
| 2026-05-08 20:08 | 48.99610 | 2.59685 | 358 ft | 6 kts | 28° |
| 2026-05-08 20:09 | 48.99699 | 2.59689 | 356 ft | 16 kts | 355° |
| 2026-05-08 20:09 | 48.99812 | 2.59674 | 355 ft | 16 kts | 354° |
| 2026-05-08 20:09 | 48.99920 | 2.59659 | 358 ft | 14 kts | 356° |
| 2026-05-08 20:09 | 48.99992 | 2.59651 | 356 ft | 10 kts | 355° |
| 2026-05-08 20:10 | 49.00053 | 2.59629 | 356 ft | 9 kts | 330° |
| 2026-05-08 20:10 | 49.00080 | 2.59560 | 358 ft | 7 kts | 277° |
| 2026-05-08 20:10 | 49.00075 | 2.59485 | 357 ft | 9 kts | 263° |
| 2026-05-08 20:10 | 49.00069 | 2.59385 | 354 ft | 9 kts | 265° |
| 2026-05-08 20:11 | 49.00065 | 2.59294 | 358 ft | 9 kts | 266° |
| 2026-05-08 20:11 | 49.00059 | 2.59182 | 360 ft | 14 kts | 265° |
| 2026-05-08 20:11 | 49.00050 | 2.59033 | 354 ft | 14 kts | 265° |
| 2026-05-08 20:11 | 49.00042 | 2.58891 | 354 ft | 13 kts | 265° |
| 2026-05-08 20:12 | 49.00034 | 2.58758 | 354 ft | 12 kts | 265° |
| 2026-05-08 20:12 | 49.00027 | 2.58635 | 354 ft | 11 kts | 266° |
| 2026-05-08 20:12 | 49.00022 | 2.58520 | 354 ft | 10 kts | 266° |
| 2026-05-08 20:12 | 49.00019 | 2.58415 | 354 ft | 9 kts | 270° |
| 2026-05-08 20:13 | 49.00037 | 2.58338 | 359 ft | 5 kts | 317° |
| 2026-05-08 20:13 | 49.00041 | 2.58333 | 358 ft | 0 kts | 326° |
| 2026-05-08 20:14 | 49.00044 | 2.58331 | 361 ft | 2 kts | 328° |
| 2026-05-08 20:14 | 49.00080 | 2.58318 | 354 ft | 7 kts | 355° |
| 2026-05-08 20:14 | 49.00131 | 2.58311 | 356 ft | 9 kts | 355° |
| 2026-05-08 20:15 | 49.00198 | 2.58303 | 354 ft | 11 kts | 355° |
| 2026-05-08 20:15 | 49.00271 | 2.58295 | 360 ft | 10 kts | 354° |
| 2026-05-08 20:15 | 49.00326 | 2.58240 | 359 ft | 9 kts | 293° |
| 2026-05-08 20:15 | 49.00323 | 2.58149 | 354 ft | 8 kts | 256° |
| 2026-05-08 20:16 | 49.00287 | 2.58102 | 357 ft | 6 kts | 212° |
| 2026-05-08 20:16 | 49.00272 | 2.58088 | 360 ft | 1 kts | 211° |
| 2026-05-08 20:16 | 49.00268 | 2.58085 | 359 ft | 0 kts | 211° |